<?xml version="1.0" encoding="UTF-8" standalone="no" ?>
<gpx xmlns="http://www.topografix.com/GPX/1/1" xmlns:xsi="http://www.w3.org/2001/XMLSchema-instance" xsi:schemaLocation="http://www.topografix.com/GPX/1/1 http://www.topografix.com/GPX/1/1/gpx.xsd" version="1.1" creator="VisuGPX - https://www.visugpx.com">
  <metadata>
    <name>9562426-Bougres d'ânes - Catherine Aubard 14,3</name>
  </metadata>
  <trk>
    <name><![CDATA[9562426-Bougres d'ânes - Catherine Aubard 14,3]]></name>
    <trkseg>
      <trkpt lat="46.2092" lon="4.05474">
        <ele>268</ele>
        <time>2019-03-10T11:20:31Z</time>
      </trkpt>
      <trkpt lat="46.20897" lon="4.05559">
        <ele>267</ele>
        <time>2019-03-10T11:21:31Z</time>
      </trkpt>
      <trkpt lat="46.20898" lon="4.05557">
        <ele>267</ele>
        <time>2019-03-10T11:22:31Z</time>
      </trkpt>
      <trkpt lat="46.20919" lon="4.05578">
        <ele>264</ele>
        <time>2019-03-10T11:23:31Z</time>
      </trkpt>
      <trkpt lat="46.20921" lon="4.05576">
        <ele>264</ele>
        <time>2019-03-10T11:24:31Z</time>
      </trkpt>
      <trkpt lat="46.20907" lon="4.05606">
        <ele>263</ele>
        <time>2019-03-10T11:25:31Z</time>
      </trkpt>
      <trkpt lat="46.20907" lon="4.05606">
        <ele>263</ele>
        <time>2019-03-10T11:26:31Z</time>
      </trkpt>
      <trkpt lat="46.20803" lon="4.05857">
        <ele>262</ele>
        <time>2019-03-10T11:27:31Z</time>
      </trkpt>
      <trkpt lat="46.20734" lon="4.06055">
        <ele>260</ele>
        <time>2019-03-10T11:28:31Z</time>
      </trkpt>
      <trkpt lat="46.20681" lon="4.062">
        <ele>261</ele>
        <time>2019-03-10T11:29:31Z</time>
      </trkpt>
      <trkpt lat="46.20593" lon="4.06415">
        <ele>260</ele>
        <time>2019-03-10T11:30:31Z</time>
      </trkpt>
      <trkpt lat="46.20542" lon="4.06545">
        <ele>258</ele>
        <time>2019-03-10T11:31:31Z</time>
      </trkpt>
      <trkpt lat="46.205" lon="4.06623">
        <ele>259</ele>
        <time>2019-03-10T11:32:31Z</time>
      </trkpt>
      <trkpt lat="46.20445" lon="4.06713">
        <ele>258</ele>
        <time>2019-03-10T11:33:31Z</time>
      </trkpt>
      <trkpt lat="46.20372" lon="4.06789">
        <ele>259</ele>
        <time>2019-03-10T11:34:31Z</time>
      </trkpt>
      <trkpt lat="46.20137" lon="4.06962">
        <ele>258</ele>
        <time>2019-03-10T11:35:31Z</time>
      </trkpt>
      <trkpt lat="46.20093" lon="4.06991">
        <ele>259</ele>
        <time>2019-03-10T11:36:31Z</time>
      </trkpt>
      <trkpt lat="46.19986" lon="4.0705">
        <ele>258</ele>
        <time>2019-03-10T11:37:31Z</time>
      </trkpt>
      <trkpt lat="46.19963" lon="4.0706">
        <ele>258</ele>
        <time>2019-03-10T11:38:31Z</time>
      </trkpt>
      <trkpt lat="46.20005" lon="4.07054">
        <ele>257</ele>
        <time>2019-03-10T11:39:31Z</time>
      </trkpt>
      <trkpt lat="46.20066" lon="4.07161">
        <ele>252</ele>
        <time>2019-03-10T11:40:31Z</time>
      </trkpt>
      <trkpt lat="46.20092" lon="4.0721">
        <ele>251</ele>
        <time>2019-03-10T11:41:31Z</time>
      </trkpt>
      <trkpt lat="46.2011" lon="4.07249">
        <ele>250</ele>
        <time>2019-03-10T11:42:31Z</time>
      </trkpt>
      <trkpt lat="46.20126" lon="4.07262">
        <ele>250</ele>
        <time>2019-03-10T11:43:31Z</time>
      </trkpt>
      <trkpt lat="46.20137" lon="4.07264">
        <ele>251</ele>
        <time>2019-03-10T11:44:31Z</time>
      </trkpt>
      <trkpt lat="46.20151" lon="4.07261">
        <ele>251</ele>
        <time>2019-03-10T11:45:31Z</time>
      </trkpt>
      <trkpt lat="46.202" lon="4.07213">
        <ele>251</ele>
        <time>2019-03-10T11:46:31Z</time>
      </trkpt>
      <trkpt lat="46.20213" lon="4.0721">
        <ele>250</ele>
        <time>2019-03-10T11:47:31Z</time>
      </trkpt>
      <trkpt lat="46.20223" lon="4.07214">
        <ele>250</ele>
        <time>2019-03-10T11:48:31Z</time>
      </trkpt>
      <trkpt lat="46.20231" lon="4.07222">
        <ele>250</ele>
        <time>2019-03-10T11:49:31Z</time>
      </trkpt>
      <trkpt lat="46.20367" lon="4.07466">
        <ele>251</ele>
        <time>2019-03-10T11:50:31Z</time>
      </trkpt>
      <trkpt lat="46.20373" lon="4.0747">
        <ele>251</ele>
        <time>2019-03-10T11:51:31Z</time>
      </trkpt>
      <trkpt lat="46.20271" lon="4.07591">
        <ele>250</ele>
        <time>2019-03-10T11:52:31Z</time>
      </trkpt>
      <trkpt lat="46.20186" lon="4.0767">
        <ele>250</ele>
        <time>2019-03-10T11:53:31Z</time>
      </trkpt>
      <trkpt lat="46.20178" lon="4.07682">
        <ele>250</ele>
        <time>2019-03-10T11:54:31Z</time>
      </trkpt>
      <trkpt lat="46.20176" lon="4.07696">
        <ele>250</ele>
        <time>2019-03-10T11:55:31Z</time>
      </trkpt>
      <trkpt lat="46.20179" lon="4.07708">
        <ele>250</ele>
        <time>2019-03-10T11:56:31Z</time>
      </trkpt>
      <trkpt lat="46.20226" lon="4.07804">
        <ele>255</ele>
        <time>2019-03-10T11:57:31Z</time>
      </trkpt>
      <trkpt lat="46.20229" lon="4.07832">
        <ele>257</ele>
        <time>2019-03-10T11:58:31Z</time>
      </trkpt>
      <trkpt lat="46.20225" lon="4.07854">
        <ele>258</ele>
        <time>2019-03-10T11:59:31Z</time>
      </trkpt>
      <trkpt lat="46.20219" lon="4.07868">
        <ele>258</ele>
        <time>2019-03-10T12:00:31Z</time>
      </trkpt>
      <trkpt lat="46.20217" lon="4.07887">
        <ele>259</ele>
        <time>2019-03-10T12:01:31Z</time>
      </trkpt>
      <trkpt lat="46.20221" lon="4.079">
        <ele>260</ele>
        <time>2019-03-10T12:02:31Z</time>
      </trkpt>
      <trkpt lat="46.20254" lon="4.07971">
        <ele>263</ele>
        <time>2019-03-10T12:03:31Z</time>
      </trkpt>
      <trkpt lat="46.20264" lon="4.07986">
        <ele>264</ele>
        <time>2019-03-10T12:04:31Z</time>
      </trkpt>
      <trkpt lat="46.20329" lon="4.0805">
        <ele>264</ele>
        <time>2019-03-10T12:05:31Z</time>
      </trkpt>
      <trkpt lat="46.20374" lon="4.08138">
        <ele>266</ele>
        <time>2019-03-10T12:06:31Z</time>
      </trkpt>
      <trkpt lat="46.20388" lon="4.08157">
        <ele>266</ele>
        <time>2019-03-10T12:07:31Z</time>
      </trkpt>
      <trkpt lat="46.20457" lon="4.08224">
        <ele>271</ele>
        <time>2019-03-10T12:08:31Z</time>
      </trkpt>
      <trkpt lat="46.20456" lon="4.08227">
        <ele>270</ele>
        <time>2019-03-10T12:09:31Z</time>
      </trkpt>
      <trkpt lat="46.20403" lon="4.0828">
        <ele>271</ele>
        <time>2019-03-10T12:10:31Z</time>
      </trkpt>
      <trkpt lat="46.20403" lon="4.0828">
        <ele>271</ele>
        <time>2019-03-10T12:11:31Z</time>
      </trkpt>
      <trkpt lat="46.20391" lon="4.08392">
        <ele>292</ele>
        <time>2019-03-10T12:12:31Z</time>
      </trkpt>
      <trkpt lat="46.20391" lon="4.08392">
        <ele>292</ele>
        <time>2019-03-10T12:13:31Z</time>
      </trkpt>
      <trkpt lat="46.20533" lon="4.08679">
        <ele>308</ele>
        <time>2019-03-10T12:14:31Z</time>
      </trkpt>
      <trkpt lat="46.20533" lon="4.08679">
        <ele>308</ele>
        <time>2019-03-10T12:15:31Z</time>
      </trkpt>
      <trkpt lat="46.20643" lon="4.09216">
        <ele>324</ele>
        <time>2019-03-10T12:16:31Z</time>
      </trkpt>
      <trkpt lat="46.20643" lon="4.09216">
        <ele>324</ele>
        <time>2019-03-10T12:17:31Z</time>
      </trkpt>
      <trkpt lat="46.20679" lon="4.09777">
        <ele>340</ele>
        <time>2019-03-10T12:18:31Z</time>
      </trkpt>
      <trkpt lat="46.20679" lon="4.09777">
        <ele>340</ele>
        <time>2019-03-10T12:19:31Z</time>
      </trkpt>
      <trkpt lat="46.20755" lon="4.09798">
        <ele>318</ele>
        <time>2019-03-10T12:20:31Z</time>
      </trkpt>
      <trkpt lat="46.20755" lon="4.09798">
        <ele>318</ele>
        <time>2019-03-10T12:21:31Z</time>
      </trkpt>
      <trkpt lat="46.20749" lon="4.09739">
        <ele>321</ele>
        <time>2019-03-10T12:22:31Z</time>
      </trkpt>
      <trkpt lat="46.20749" lon="4.09739">
        <ele>321</ele>
        <time>2019-03-10T12:23:31Z</time>
      </trkpt>
      <trkpt lat="46.20891" lon="4.09531">
        <ele>291</ele>
        <time>2019-03-10T12:24:31Z</time>
      </trkpt>
      <trkpt lat="46.20896" lon="4.09523">
        <ele>291</ele>
        <time>2019-03-10T12:25:31Z</time>
      </trkpt>
      <trkpt lat="46.2092" lon="4.09562">
        <ele>293</ele>
        <time>2019-03-10T12:26:31Z</time>
      </trkpt>
      <trkpt lat="46.20965" lon="4.09732">
        <ele>294</ele>
        <time>2019-03-10T12:27:31Z</time>
      </trkpt>
      <trkpt lat="46.2099" lon="4.09871">
        <ele>294</ele>
        <time>2019-03-10T12:28:31Z</time>
      </trkpt>
      <trkpt lat="46.20996" lon="4.0992">
        <ele>293</ele>
        <time>2019-03-10T12:29:31Z</time>
      </trkpt>
      <trkpt lat="46.20999" lon="4.10021">
        <ele>294</ele>
        <time>2019-03-10T12:30:31Z</time>
      </trkpt>
      <trkpt lat="46.21002" lon="4.10073">
        <ele>295</ele>
        <time>2019-03-10T12:31:31Z</time>
      </trkpt>
      <trkpt lat="46.21042" lon="4.10163">
        <ele>297</ele>
        <time>2019-03-10T12:32:31Z</time>
      </trkpt>
      <trkpt lat="46.21017" lon="4.10191">
        <ele>299</ele>
        <time>2019-03-10T12:33:31Z</time>
      </trkpt>
      <trkpt lat="46.21013" lon="4.10215">
        <ele>300</ele>
        <time>2019-03-10T12:34:31Z</time>
      </trkpt>
      <trkpt lat="46.21007" lon="4.10269">
        <ele>303</ele>
        <time>2019-03-10T12:35:31Z</time>
      </trkpt>
      <trkpt lat="46.20989" lon="4.10319">
        <ele>308</ele>
        <time>2019-03-10T12:36:31Z</time>
      </trkpt>
      <trkpt lat="46.20982" lon="4.10418">
        <ele>316</ele>
        <time>2019-03-10T12:37:31Z</time>
      </trkpt>
      <trkpt lat="46.21" lon="4.10503">
        <ele>315</ele>
        <time>2019-03-10T12:38:31Z</time>
      </trkpt>
      <trkpt lat="46.21021" lon="4.10676">
        <ele>321</ele>
        <time>2019-03-10T12:39:31Z</time>
      </trkpt>
      <trkpt lat="46.21035" lon="4.10916">
        <ele>331</ele>
        <time>2019-03-10T12:40:31Z</time>
      </trkpt>
      <trkpt lat="46.21036" lon="4.10985">
        <ele>331</ele>
        <time>2019-03-10T12:41:31Z</time>
      </trkpt>
      <trkpt lat="46.21031" lon="4.10993">
        <ele>333</ele>
        <time>2019-03-10T12:42:31Z</time>
      </trkpt>
      <trkpt lat="46.2103" lon="4.11009">
        <ele>334</ele>
        <time>2019-03-10T12:43:31Z</time>
      </trkpt>
      <trkpt lat="46.21033" lon="4.11031">
        <ele>333</ele>
        <time>2019-03-10T12:44:31Z</time>
      </trkpt>
      <trkpt lat="46.2103" lon="4.11194">
        <ele>342</ele>
        <time>2019-03-10T12:45:31Z</time>
      </trkpt>
      <trkpt lat="46.21017" lon="4.11299">
        <ele>350</ele>
        <time>2019-03-10T12:46:31Z</time>
      </trkpt>
      <trkpt lat="46.20999" lon="4.11404">
        <ele>356</ele>
        <time>2019-03-10T12:47:31Z</time>
      </trkpt>
      <trkpt lat="46.21083" lon="4.1141">
        <ele>335</ele>
        <time>2019-03-10T12:48:31Z</time>
      </trkpt>
      <trkpt lat="46.21102" lon="4.11437">
        <ele>330</ele>
        <time>2019-03-10T12:49:31Z</time>
      </trkpt>
      <trkpt lat="46.21131" lon="4.11437">
        <ele>324</ele>
        <time>2019-03-10T12:50:31Z</time>
      </trkpt>
      <trkpt lat="46.21186" lon="4.114">
        <ele>317</ele>
        <time>2019-03-10T12:51:31Z</time>
      </trkpt>
      <trkpt lat="46.21209" lon="4.11377">
        <ele>315</ele>
        <time>2019-03-10T12:52:31Z</time>
      </trkpt>
      <trkpt lat="46.21257" lon="4.11369">
        <ele>313</ele>
        <time>2019-03-10T12:53:31Z</time>
      </trkpt>
      <trkpt lat="46.21249" lon="4.11398">
        <ele>313</ele>
        <time>2019-03-10T12:54:31Z</time>
      </trkpt>
      <trkpt lat="46.21346" lon="4.11422">
        <ele>327</ele>
        <time>2019-03-10T12:55:31Z</time>
      </trkpt>
      <trkpt lat="46.21401" lon="4.11433">
        <ele>334</ele>
        <time>2019-03-10T12:56:31Z</time>
      </trkpt>
      <trkpt lat="46.21456" lon="4.11458">
        <ele>341</ele>
        <time>2019-03-10T12:57:31Z</time>
      </trkpt>
      <trkpt lat="46.21464" lon="4.11474">
        <ele>343</ele>
        <time>2019-03-10T12:58:31Z</time>
      </trkpt>
      <trkpt lat="46.21423" lon="4.1165">
        <ele>359</ele>
        <time>2019-03-10T12:59:31Z</time>
      </trkpt>
      <trkpt lat="46.2142" lon="4.11696">
        <ele>363</ele>
        <time>2019-03-10T13:00:31Z</time>
      </trkpt>
      <trkpt lat="46.2143" lon="4.11738">
        <ele>368</ele>
        <time>2019-03-10T13:01:31Z</time>
      </trkpt>
      <trkpt lat="46.21477" lon="4.11831">
        <ele>380</ele>
        <time>2019-03-10T13:02:31Z</time>
      </trkpt>
      <trkpt lat="46.21489" lon="4.11861">
        <ele>383</ele>
        <time>2019-03-10T13:03:31Z</time>
      </trkpt>
      <trkpt lat="46.21508" lon="4.11933">
        <ele>389</ele>
        <time>2019-03-10T13:04:31Z</time>
      </trkpt>
      <trkpt lat="46.21523" lon="4.11953">
        <ele>389</ele>
        <time>2019-03-10T13:05:31Z</time>
      </trkpt>
      <trkpt lat="46.21552" lon="4.1207">
        <ele>390</ele>
        <time>2019-03-10T13:06:31Z</time>
      </trkpt>
      <trkpt lat="46.21701" lon="4.12387">
        <ele>397</ele>
        <time>2019-03-10T13:07:31Z</time>
      </trkpt>
      <trkpt lat="46.21741" lon="4.12479">
        <ele>403</ele>
        <time>2019-03-10T13:08:31Z</time>
      </trkpt>
      <trkpt lat="46.21756" lon="4.12555">
        <ele>406</ele>
        <time>2019-03-10T13:09:31Z</time>
      </trkpt>
      <trkpt lat="46.21818" lon="4.12941">
        <ele>413</ele>
        <time>2019-03-10T13:10:31Z</time>
      </trkpt>
      <trkpt lat="46.21836" lon="4.13023">
        <ele>416</ele>
        <time>2019-03-10T13:11:31Z</time>
      </trkpt>
      <trkpt lat="46.21872" lon="4.13114">
        <ele>417</ele>
        <time>2019-03-10T13:12:31Z</time>
      </trkpt>
      <trkpt lat="46.21909" lon="4.13225">
        <ele>424</ele>
        <time>2019-03-10T13:13:31Z</time>
      </trkpt>
      <trkpt lat="46.21942" lon="4.13381">
        <ele>435</ele>
        <time>2019-03-10T13:14:31Z</time>
      </trkpt>
      <trkpt lat="46.21954" lon="4.13421">
        <ele>438</ele>
        <time>2019-03-10T13:15:31Z</time>
      </trkpt>
      <trkpt lat="46.21967" lon="4.13475">
        <ele>438</ele>
        <time>2019-03-10T13:16:31Z</time>
      </trkpt>
      <trkpt lat="46.2196" lon="4.13517">
        <ele>438</ele>
        <time>2019-03-10T13:17:31Z</time>
      </trkpt>
      <trkpt lat="46.2193" lon="4.1361">
        <ele>438</ele>
        <time>2019-03-10T13:18:31Z</time>
      </trkpt>
      <trkpt lat="46.21918" lon="4.13667">
        <ele>439</ele>
        <time>2019-03-10T13:19:31Z</time>
      </trkpt>
      <trkpt lat="46.2192" lon="4.13721">
        <ele>438</ele>
        <time>2019-03-10T13:20:31Z</time>
      </trkpt>
      <trkpt lat="46.21909" lon="4.13791">
        <ele>435</ele>
        <time>2019-03-10T13:21:31Z</time>
      </trkpt>
      <trkpt lat="46.21899" lon="4.13838">
        <ele>433</ele>
        <time>2019-03-10T13:22:31Z</time>
      </trkpt>
      <trkpt lat="46.21892" lon="4.13843">
        <ele>432</ele>
        <time>2019-03-10T13:23:31Z</time>
      </trkpt>
      <trkpt lat="46.21882" lon="4.13858">
        <ele>430</ele>
        <time>2019-03-10T13:24:31Z</time>
      </trkpt>
      <trkpt lat="46.2187" lon="4.13885">
        <ele>428</ele>
        <time>2019-03-10T13:25:31Z</time>
      </trkpt>
      <trkpt lat="46.21856" lon="4.139">
        <ele>427</ele>
        <time>2019-03-10T13:26:31Z</time>
      </trkpt>
      <trkpt lat="46.21839" lon="4.13911">
        <ele>427</ele>
        <time>2019-03-10T13:27:31Z</time>
      </trkpt>
      <trkpt lat="46.21783" lon="4.13935">
        <ele>423</ele>
        <time>2019-03-10T13:28:31Z</time>
      </trkpt>
      <trkpt lat="46.217" lon="4.13982">
        <ele>414</ele>
        <time>2019-03-10T13:29:31Z</time>
      </trkpt>
      <trkpt lat="46.21678" lon="4.1401">
        <ele>411</ele>
        <time>2019-03-10T13:30:31Z</time>
      </trkpt>
      <trkpt lat="46.21662" lon="4.14053">
        <ele>408</ele>
        <time>2019-03-10T13:31:31Z</time>
      </trkpt>
      <trkpt lat="46.21653" lon="4.14058">
        <ele>407</ele>
        <time>2019-03-10T13:32:31Z</time>
      </trkpt>
      <trkpt lat="46.21678" lon="4.14072">
        <ele>408</ele>
        <time>2019-03-10T13:33:31Z</time>
      </trkpt>
      <trkpt lat="46.21695" lon="4.14098">
        <ele>406</ele>
        <time>2019-03-10T13:34:31Z</time>
      </trkpt>
      <trkpt lat="46.21769" lon="4.14157">
        <ele>399</ele>
        <time>2019-03-10T13:35:31Z</time>
      </trkpt>
      <trkpt lat="46.21846" lon="4.14201">
        <ele>398</ele>
        <time>2019-03-10T13:36:31Z</time>
      </trkpt>
      <trkpt lat="46.21877" lon="4.14238">
        <ele>396</ele>
        <time>2019-03-10T13:37:31Z</time>
      </trkpt>
      <trkpt lat="46.219" lon="4.14297">
        <ele>395</ele>
        <time>2019-03-10T13:38:31Z</time>
      </trkpt>
      <trkpt lat="46.21928" lon="4.14352">
        <ele>395</ele>
        <time>2019-03-10T13:39:31Z</time>
      </trkpt>
      <trkpt lat="46.21934" lon="4.14376">
        <ele>396</ele>
        <time>2019-03-10T13:40:31Z</time>
      </trkpt>
      <trkpt lat="46.2195" lon="4.14478">
        <ele>394</ele>
        <time>2019-03-10T13:41:31Z</time>
      </trkpt>
      <trkpt lat="46.2196" lon="4.14522">
        <ele>393</ele>
        <time>2019-03-10T13:42:31Z</time>
      </trkpt>
      <trkpt lat="46.21972" lon="4.14547">
        <ele>392</ele>
        <time>2019-03-10T13:43:31Z</time>
      </trkpt>
      <trkpt lat="46.21996" lon="4.14583">
        <ele>393</ele>
        <time>2019-03-10T13:44:31Z</time>
      </trkpt>
      <trkpt lat="46.22018" lon="4.14629">
        <ele>393</ele>
        <time>2019-03-10T13:45:31Z</time>
      </trkpt>
      <trkpt lat="46.22029" lon="4.14692">
        <ele>393</ele>
        <time>2019-03-10T13:46:31Z</time>
      </trkpt>
      <trkpt lat="46.22041" lon="4.14802">
        <ele>395</ele>
        <time>2019-03-10T13:47:31Z</time>
      </trkpt>
      <trkpt lat="46.22049" lon="4.14912">
        <ele>397</ele>
        <time>2019-03-10T13:48:31Z</time>
      </trkpt>
      <trkpt lat="46.2206" lon="4.15006">
        <ele>400</ele>
        <time>2019-03-10T13:49:31Z</time>
      </trkpt>
      <trkpt lat="46.22068" lon="4.15119">
        <ele>402</ele>
        <time>2019-03-10T13:50:31Z</time>
      </trkpt>
      <trkpt lat="46.22187" lon="4.15244">
        <ele>411</ele>
        <time>2019-03-10T13:51:31Z</time>
      </trkpt>
      <trkpt lat="46.22238" lon="4.15274">
        <ele>414</ele>
        <time>2019-03-10T13:52:31Z</time>
      </trkpt>
      <trkpt lat="46.22273" lon="4.15278">
        <ele>416</ele>
        <time>2019-03-10T13:53:31Z</time>
      </trkpt>
      <trkpt lat="46.22308" lon="4.15278">
        <ele>418</ele>
        <time>2019-03-10T13:54:31Z</time>
      </trkpt>
      <trkpt lat="46.22342" lon="4.15269">
        <ele>420</ele>
        <time>2019-03-10T13:55:31Z</time>
      </trkpt>
      <trkpt lat="46.22384" lon="4.1531">
        <ele>421</ele>
        <time>2019-03-10T13:56:31Z</time>
      </trkpt>
      <trkpt lat="46.22458" lon="4.15367">
        <ele>418</ele>
        <time>2019-03-10T13:57:31Z</time>
      </trkpt>
      <trkpt lat="46.22505" lon="4.15409">
        <ele>416</ele>
        <time>2019-03-10T13:58:31Z</time>
      </trkpt>
      <trkpt lat="46.22508" lon="4.15436">
        <ele>416</ele>
        <time>2019-03-10T13:59:31Z</time>
      </trkpt>
      <trkpt lat="46.22525" lon="4.15509">
        <ele>417</ele>
        <time>2019-03-10T14:00:31Z</time>
      </trkpt>
      <trkpt lat="46.22541" lon="4.15556">
        <ele>419</ele>
        <time>2019-03-10T14:01:31Z</time>
      </trkpt>
      <trkpt lat="46.2255" lon="4.1559">
        <ele>420</ele>
        <time>2019-03-10T14:02:31Z</time>
      </trkpt>
      <trkpt lat="46.22563" lon="4.15609">
        <ele>421</ele>
        <time>2019-03-10T14:03:31Z</time>
      </trkpt>
      <trkpt lat="46.22575" lon="4.15639">
        <ele>422</ele>
        <time>2019-03-10T14:04:31Z</time>
      </trkpt>
      <trkpt lat="46.22597" lon="4.15668">
        <ele>422</ele>
        <time>2019-03-10T14:05:31Z</time>
      </trkpt>
      <trkpt lat="46.22636" lon="4.15697">
        <ele>421</ele>
        <time>2019-03-10T14:06:31Z</time>
      </trkpt>
      <trkpt lat="46.22673" lon="4.15762">
        <ele>421</ele>
        <time>2019-03-10T14:07:31Z</time>
      </trkpt>
      <trkpt lat="46.22684" lon="4.15779">
        <ele>420</ele>
        <time>2019-03-10T14:08:31Z</time>
      </trkpt>
      <trkpt lat="46.22697" lon="4.15779">
        <ele>420</ele>
        <time>2019-03-10T14:09:31Z</time>
      </trkpt>
      <trkpt lat="46.22697" lon="4.15822">
        <ele>418</ele>
        <time>2019-03-10T14:10:31Z</time>
      </trkpt>
      <trkpt lat="46.22706" lon="4.15918">
        <ele>414</ele>
        <time>2019-03-10T14:11:31Z</time>
      </trkpt>
      <trkpt lat="46.22715" lon="4.15944">
        <ele>413</ele>
        <time>2019-03-10T14:12:31Z</time>
      </trkpt>
      <trkpt lat="46.22729" lon="4.15976">
        <ele>413</ele>
        <time>2019-03-10T14:13:31Z</time>
      </trkpt>
      <trkpt lat="46.22749" lon="4.16009">
        <ele>413</ele>
        <time>2019-03-10T14:14:31Z</time>
      </trkpt>
      <trkpt lat="46.22784" lon="4.16054">
        <ele>411</ele>
        <time>2019-03-10T14:15:31Z</time>
      </trkpt>
      <trkpt lat="46.22796" lon="4.16087">
        <ele>410</ele>
        <time>2019-03-10T14:16:31Z</time>
      </trkpt>
      <trkpt lat="46.22804" lon="4.1613">
        <ele>409</ele>
        <time>2019-03-10T14:17:31Z</time>
      </trkpt>
      <trkpt lat="46.22813" lon="4.16196">
        <ele>407</ele>
        <time>2019-03-10T14:18:31Z</time>
      </trkpt>
      <trkpt lat="46.2282" lon="4.1623">
        <ele>406</ele>
        <time>2019-03-10T14:19:31Z</time>
      </trkpt>
      <trkpt lat="46.22827" lon="4.16249">
        <ele>406</ele>
        <time>2019-03-10T14:20:31Z</time>
      </trkpt>
      <trkpt lat="46.22837" lon="4.16268">
        <ele>405</ele>
        <time>2019-03-10T14:21:31Z</time>
      </trkpt>
      <trkpt lat="46.22857" lon="4.16295">
        <ele>404</ele>
        <time>2019-03-10T14:22:31Z</time>
      </trkpt>
      <trkpt lat="46.2286" lon="4.16305">
        <ele>403</ele>
        <time>2019-03-10T14:23:31Z</time>
      </trkpt>
      <trkpt lat="46.22939" lon="4.16298">
        <ele>399</ele>
        <time>2019-03-10T14:24:31Z</time>
      </trkpt>
      <trkpt lat="46.22953" lon="4.16293">
        <ele>397</ele>
        <time>2019-03-10T14:25:31Z</time>
      </trkpt>
      <trkpt lat="46.23" lon="4.16271">
        <ele>392</ele>
        <time>2019-03-10T14:26:31Z</time>
      </trkpt>
      <trkpt lat="46.23024" lon="4.16228">
        <ele>391</ele>
        <time>2019-03-10T14:27:31Z</time>
      </trkpt>
      <trkpt lat="46.23032" lon="4.16189">
        <ele>391</ele>
        <time>2019-03-10T14:28:31Z</time>
      </trkpt>
      <trkpt lat="46.23036" lon="4.16133">
        <ele>393</ele>
        <time>2019-03-10T14:29:31Z</time>
      </trkpt>
      <trkpt lat="46.23039" lon="4.16116">
        <ele>393</ele>
        <time>2019-03-10T14:30:31Z</time>
      </trkpt>
      <trkpt lat="46.23058" lon="4.16077">
        <ele>392</ele>
        <time>2019-03-10T14:31:31Z</time>
      </trkpt>
      <trkpt lat="46.23061" lon="4.16044">
        <ele>393</ele>
        <time>2019-03-10T14:32:31Z</time>
      </trkpt>
      <trkpt lat="46.23059" lon="4.15961">
        <ele>396</ele>
        <time>2019-03-10T14:33:31Z</time>
      </trkpt>
      <trkpt lat="46.23068" lon="4.15942">
        <ele>396</ele>
        <time>2019-03-10T14:34:31Z</time>
      </trkpt>
      <trkpt lat="46.23102" lon="4.15932">
        <ele>395</ele>
        <time>2019-03-10T14:35:31Z</time>
      </trkpt>
      <trkpt lat="46.23118" lon="4.15912">
        <ele>396</ele>
        <time>2019-03-10T14:36:31Z</time>
      </trkpt>
      <trkpt lat="46.23156" lon="4.15872">
        <ele>401</ele>
        <time>2019-03-10T14:37:31Z</time>
      </trkpt>
      <trkpt lat="46.23182" lon="4.15833">
        <ele>406</ele>
        <time>2019-03-10T14:38:31Z</time>
      </trkpt>
      <trkpt lat="46.23199" lon="4.15803">
        <ele>408</ele>
        <time>2019-03-10T14:39:31Z</time>
      </trkpt>
      <trkpt lat="46.23243" lon="4.15755">
        <ele>411</ele>
        <time>2019-03-10T14:40:31Z</time>
      </trkpt>
      <trkpt lat="46.23304" lon="4.15646">
        <ele>416</ele>
        <time>2019-03-10T14:41:31Z</time>
      </trkpt>
      <trkpt lat="46.23376" lon="4.1556">
        <ele>420</ele>
        <time>2019-03-10T14:42:31Z</time>
      </trkpt>
      <trkpt lat="46.234" lon="4.1554">
        <ele>421</ele>
        <time>2019-03-10T14:43:31Z</time>
      </trkpt>
      <trkpt lat="46.23437" lon="4.15542">
        <ele>420</ele>
        <time>2019-03-10T14:44:31Z</time>
      </trkpt>
      <trkpt lat="46.23454" lon="4.15537">
        <ele>420</ele>
        <time>2019-03-10T14:45:31Z</time>
      </trkpt>
      <trkpt lat="46.23473" lon="4.15528">
        <ele>420</ele>
        <time>2019-03-10T14:46:31Z</time>
      </trkpt>
      <trkpt lat="46.23494" lon="4.15511">
        <ele>420</ele>
        <time>2019-03-10T14:47:31Z</time>
      </trkpt>
      <trkpt lat="46.23533" lon="4.15473">
        <ele>417</ele>
        <time>2019-03-10T14:48:31Z</time>
      </trkpt>
      <trkpt lat="46.23545" lon="4.15463">
        <ele>416</ele>
        <time>2019-03-10T14:49:31Z</time>
      </trkpt>
      <trkpt lat="46.23555" lon="4.1546">
        <ele>416</ele>
        <time>2019-03-10T14:50:31Z</time>
      </trkpt>
      <trkpt lat="46.23605" lon="4.15453">
        <ele>414</ele>
        <time>2019-03-10T14:51:31Z</time>
      </trkpt>
      <trkpt lat="46.23668" lon="4.15457">
        <ele>413</ele>
        <time>2019-03-10T14:52:31Z</time>
      </trkpt>
      <trkpt lat="46.23693" lon="4.15456">
        <ele>412</ele>
        <time>2019-03-10T14:53:31Z</time>
      </trkpt>
      <trkpt lat="46.23732" lon="4.15446">
        <ele>412</ele>
        <time>2019-03-10T14:54:31Z</time>
      </trkpt>
      <trkpt lat="46.23795" lon="4.15409">
        <ele>411</ele>
        <time>2019-03-10T14:55:31Z</time>
      </trkpt>
      <trkpt lat="46.23882" lon="4.15353">
        <ele>409</ele>
        <time>2019-03-10T14:56:31Z</time>
      </trkpt>
      <trkpt lat="46.23895" lon="4.15347">
        <ele>408</ele>
        <time>2019-03-10T14:57:31Z</time>
      </trkpt>
      <trkpt lat="46.23907" lon="4.15345">
        <ele>408</ele>
        <time>2019-03-10T14:58:31Z</time>
      </trkpt>
      <trkpt lat="46.23972" lon="4.15363">
        <ele>406</ele>
        <time>2019-03-10T14:59:31Z</time>
      </trkpt>
      <trkpt lat="46.23988" lon="4.15362">
        <ele>406</ele>
        <time>2019-03-10T15:00:31Z</time>
      </trkpt>
      <trkpt lat="46.24014" lon="4.15355">
        <ele>405</ele>
        <time>2019-03-10T15:01:31Z</time>
      </trkpt>
      <trkpt lat="46.24038" lon="4.15344">
        <ele>404</ele>
        <time>2019-03-10T15:02:31Z</time>
      </trkpt>
      <trkpt lat="46.24083" lon="4.15315">
        <ele>403</ele>
        <time>2019-03-10T15:03:31Z</time>
      </trkpt>
      <trkpt lat="46.24089" lon="4.15314">
        <ele>402</ele>
        <time>2019-03-10T15:04:31Z</time>
      </trkpt>
      <trkpt lat="46.24093" lon="4.15316">
        <ele>402</ele>
        <time>2019-03-10T15:05:31Z</time>
      </trkpt>
      <trkpt lat="46.241" lon="4.15334">
        <ele>401</ele>
        <time>2019-03-10T15:06:31Z</time>
      </trkpt>
      <trkpt lat="46.24101" lon="4.15347">
        <ele>400</ele>
        <time>2019-03-10T15:07:31Z</time>
      </trkpt>
      <trkpt lat="46.24108" lon="4.15378">
        <ele>397</ele>
        <time>2019-03-10T15:08:31Z</time>
      </trkpt>
      <trkpt lat="46.24112" lon="4.15387">
        <ele>396</ele>
        <time>2019-03-10T15:09:31Z</time>
      </trkpt>
      <trkpt lat="46.24131" lon="4.15407">
        <ele>394</ele>
        <time>2019-03-10T15:10:31Z</time>
      </trkpt>
      <trkpt lat="46.24141" lon="4.15411">
        <ele>393</ele>
        <time>2019-03-10T15:11:31Z</time>
      </trkpt>
      <trkpt lat="46.24154" lon="4.15426">
        <ele>391</ele>
        <time>2019-03-10T15:12:31Z</time>
      </trkpt>
      <trkpt lat="46.24196" lon="4.1548">
        <ele>391</ele>
        <time>2019-03-10T15:13:31Z</time>
      </trkpt>
      <trkpt lat="46.24203" lon="4.15485">
        <ele>392</ele>
        <time>2019-03-10T15:14:31Z</time>
      </trkpt>
      <trkpt lat="46.2421" lon="4.15485">
        <ele>393</ele>
        <time>2019-03-10T15:15:31Z</time>
      </trkpt>
      <trkpt lat="46.24249" lon="4.15445">
        <ele>393</ele>
        <time>2019-03-10T15:16:31Z</time>
      </trkpt>
      <trkpt lat="46.24266" lon="4.15432">
        <ele>394</ele>
        <time>2019-03-10T15:17:31Z</time>
      </trkpt>
      <trkpt lat="46.2429" lon="4.15422">
        <ele>395</ele>
        <time>2019-03-10T15:18:31Z</time>
      </trkpt>
      <trkpt lat="46.2431" lon="4.15421">
        <ele>397</ele>
        <time>2019-03-10T15:19:31Z</time>
      </trkpt>
      <trkpt lat="46.24327" lon="4.15425">
        <ele>399</ele>
        <time>2019-03-10T15:20:31Z</time>
      </trkpt>
      <trkpt lat="46.24363" lon="4.15444">
        <ele>404</ele>
        <time>2019-03-10T15:21:31Z</time>
      </trkpt>
      <trkpt lat="46.24388" lon="4.15462">
        <ele>409</ele>
        <time>2019-03-10T15:22:31Z</time>
      </trkpt>
      <trkpt lat="46.24427" lon="4.15497">
        <ele>418</ele>
        <time>2019-03-10T15:23:31Z</time>
      </trkpt>
      <trkpt lat="46.24445" lon="4.15511">
        <ele>421</ele>
        <time>2019-03-10T15:24:31Z</time>
      </trkpt>
      <trkpt lat="46.24529" lon="4.15532">
        <ele>431</ele>
        <time>2019-03-10T15:25:31Z</time>
      </trkpt>
      <trkpt lat="46.24538" lon="4.15538">
        <ele>432</ele>
        <time>2019-03-10T15:26:31Z</time>
      </trkpt>
      <trkpt lat="46.24567" lon="4.15581">
        <ele>436</ele>
        <time>2019-03-10T15:27:31Z</time>
      </trkpt>
      <trkpt lat="46.24584" lon="4.15598">
        <ele>437</ele>
        <time>2019-03-10T15:28:31Z</time>
      </trkpt>
      <trkpt lat="46.24596" lon="4.15607">
        <ele>438</ele>
        <time>2019-03-10T15:29:31Z</time>
      </trkpt>
      <trkpt lat="46.24612" lon="4.15614">
        <ele>439</ele>
        <time>2019-03-10T15:30:31Z</time>
      </trkpt>
      <trkpt lat="46.24698" lon="4.15632">
        <ele>444</ele>
        <time>2019-03-10T15:31:31Z</time>
      </trkpt>
      <trkpt lat="46.24724" lon="4.15648">
        <ele>445</ele>
        <time>2019-03-10T15:32:31Z</time>
      </trkpt>
      <trkpt lat="46.24738" lon="4.15663">
        <ele>446</ele>
        <time>2019-03-10T15:33:31Z</time>
      </trkpt>
      <trkpt lat="46.24748" lon="4.15679">
        <ele>446</ele>
        <time>2019-03-10T15:34:31Z</time>
      </trkpt>
      <trkpt lat="46.24756" lon="4.15695">
        <ele>445</ele>
        <time>2019-03-10T15:35:31Z</time>
      </trkpt>
      <trkpt lat="46.24765" lon="4.15695">
        <ele>446</ele>
        <time>2019-03-10T15:36:31Z</time>
      </trkpt>
    </trkseg>
  </trk>
</gpx>